Terminal Aerodrome Forecast
Issued by NWS

Home | Current Version | Previous Version | Text Only | Print | Product List | Glossary On
Versions: 1 2 3 4 5 6 7 8 9 10 11 12 13 14 15 16 17 18 19
000
FTUS45 KSLC 182001 AAA
TAFLGU
TAF AMD
KLGU 182001Z 1820/1918 36010KT 1/2SM SN FZFG SCT003 BKN007
     FM182200 33008KT 1SM -SN BR SCT007 OVC012
     FM190200 32009KT 4SM -SHSN BKN018 BKN025
     FM190800 34006KT P6SM VCSH SCT020 BKN040=

USA.gov is the U.S. government's official web portal to all federal, state and local government web resources and services.